sensor_id;sensor_type;location;lat;lon;timestamp;P1;durP1;ratioP1;P2;durP2;ratioP2
49193;SDS011;35029;50.804;12.866;2024-01-16T00:01:19;5.27;;;2.00;;
49193;SDS011;35029;50.804;12.866;2024-01-16T00:03:45;6.03;;;2.37;;
49193;SDS011;35029;50.804;12.866;2024-01-16T00:06:11;6.97;;;1.80;;
49193;SDS011;35029;50.804;12.866;2024-01-16T00:08:36;4.40;;;1.97;;
49193;SDS011;35029;50.804;12.866;2024-01-16T00:11:02;5.57;;;2.30;;
49193;SDS011;35029;50.804;12.866;2024-01-16T00:13:28;12.80;;;2.33;;
49193;SDS011;35029;50.804;12.866;2024-01-16T00:15:53;6.83;;;2.20;;
49193;SDS011;35029;50.804;12.866;2024-01-16T00:18:19;5.60;;;1.83;;
49193;SDS011;35029;50.804;12.866;2024-01-16T00:20:44;8.00;;;2.33;;
49193;SDS011;35029;50.804;12.866;2024-01-16T00:23:10;6.53;;;2.33;;
49193;SDS011;35029;50.804;12.866;2024-01-16T00:25:36;5.37;;;2.10;;
49193;SDS011;35029;50.804;12.866;2024-01-16T00:28:01;5.40;;;2.47;;
49193;SDS011;35029;50.804;12.866;2024-01-16T00:30:27;4.73;;;2.00;;
49193;SDS011;35029;50.804;12.866;2024-01-16T00:32:53;4.23;;;1.90;;
49193;SDS011;35029;50.804;12.866;2024-01-16T00:35:18;3.63;;;2.00;;
49193;SDS011;35029;50.804;12.866;2024-01-16T00:37:44;7.23;;;2.30;;
49193;SDS011;35029;50.804;12.866;2024-01-16T00:40:10;5.03;;;2.60;;
49193;SDS011;35029;50.804;12.866;2024-01-16T00:42:36;7.10;;;2.30;;
49193;SDS011;35029;50.804;12.866;2024-01-16T00:45:01;6.57;;;2.90;;
49193;SDS011;35029;50.804;12.866;2024-01-16T00:47:27;4.73;;;2.07;;
49193;SDS011;35029;50.804;12.866;2024-01-16T00:49:53;4.40;;;1.93;;
49193;SDS011;35029;50.804;12.866;2024-01-16T00:52:19;5.67;;;1.93;;
49193;SDS011;35029;50.804;12.866;2024-01-16T00:54:44;8.03;;;2.30;;
49193;SDS011;35029;50.804;12.866;2024-01-16T00:57:10;9.10;;;2.37;;
49193;SDS011;35029;50.804;12.866;2024-01-16T00:59:36;9.10;;;2.50;;
49193;SDS011;35029;50.804;12.866;2024-01-16T01:02:02;5.27;;;2.03;;
49193;SDS011;35029;50.804;12.866;2024-01-16T01:04:29;4.80;;;2.00;;
49193;SDS011;35029;50.804;12.866;2024-01-16T01:06:54;8.07;;;2.60;;
49193;SDS011;35029;50.804;12.866;2024-01-16T01:09:20;4.10;;;2.27;;
49193;SDS011;35029;50.804;12.866;2024-01-16T01:11:46;8.37;;;2.17;;
49193;SDS011;35029;50.804;12.866;2024-01-16T01:14:12;4.20;;;1.90;;
49193;SDS011;35029;50.804;12.866;2024-01-16T01:16:37;8.63;;;1.73;;
49193;SDS011;35029;50.804;12.866;2024-01-16T01:19:03;6.97;;;2.57;;
49193;SDS011;35029;50.804;12.866;2024-01-16T01:21:28;7.10;;;2.20;;
49193;SDS011;35029;50.804;12.866;2024-01-16T01:23:54;7.77;;;2.27;;
49193;SDS011;35029;50.804;12.866;2024-01-16T01:26:20;9.03;;;2.23;;
49193;SDS011;35029;50.804;12.866;2024-01-16T01:28:45;3.47;;;1.93;;
49193;SDS011;35029;50.804;12.866;2024-01-16T01:31:11;6.20;;;1.90;;
49193;SDS011;35029;50.804;12.866;2024-01-16T01:33:39;7.95;;;2.63;;
49193;SDS011;35029;50.804;12.866;2024-01-16T01:36:05;3.77;;;2.00;;
49193;SDS011;35029;50.804;12.866;2024-01-16T01:38:31;2.85;;;1.90;;
49193;SDS011;35029;50.804;12.866;2024-01-16T01:40:56;4.03;;;1.83;;
49193;SDS011;35029;50.804;12.866;2024-01-16T01:43:22;4.30;;;1.83;;
49193;SDS011;35029;50.804;12.866;2024-01-16T01:48:57;6.80;;;1.70;;
49193;SDS011;35029;50.804;12.866;2024-01-16T01:51:22;3.90;;;2.03;;
49193;SDS011;35029;50.804;12.866;2024-01-16T01:53:49;5.83;;;1.93;;
49193;SDS011;35029;50.804;12.866;2024-01-16T01:56:17;3.20;;;1.67;;
49193;SDS011;35029;50.804;12.866;2024-01-16T01:58:45;5.17;;;1.73;;
49193;SDS011;35029;50.804;12.866;2024-01-16T02:01:12;6.77;;;1.83;;
49193;SDS011;35029;50.804;12.866;2024-01-16T02:03:43;2.42;;;1.55;;
49193;SDS011;35029;50.804;12.866;2024-01-16T02:06:12;3.27;;;1.93;;
49193;SDS011;35029;50.804;12.866;2024-01-16T02:08:42;3.13;;;1.25;;
49193;SDS011;35029;50.804;12.866;2024-01-16T02:11:08;8.35;;;2.15;;
49193;SDS011;35029;50.804;12.866;2024-01-16T02:13:35;5.75;;;1.20;;
49193;SDS011;35029;50.804;12.866;2024-01-16T02:16:01;7.63;;;1.77;;
49193;SDS011;35029;50.804;12.866;2024-01-16T02:18:28;5.20;;;1.53;;
49193;SDS011;35029;50.804;12.866;2024-01-16T02:20:54;4.80;;;1.53;;
49193;SDS011;35029;50.804;12.866;2024-01-16T02:23:28;7.87;;;1.70;;
49193;SDS011;35029;50.804;12.866;2024-01-16T02:25:56;3.90;;;1.60;;
49193;SDS011;35029;50.804;12.866;2024-01-16T02:28:21;4.67;;;1.93;;
49193;SDS011;35029;50.804;12.866;2024-01-16T02:30:47;5.60;;;1.52;;
49193;SDS011;35029;50.804;12.866;2024-01-16T02:33:12;3.90;;;1.30;;
49193;SDS011;35029;50.804;12.866;2024-01-16T02:35:39;6.78;;;1.45;;
49193;SDS011;35029;50.804;12.866;2024-01-16T02:38:05;4.17;;;1.80;;
49193;SDS011;35029;50.804;12.866;2024-01-16T02:40:30;7.00;;;1.77;;
49193;SDS011;35029;50.804;12.866;2024-01-16T02:42:56;7.53;;;2.03;;
49193;SDS011;35029;50.804;12.866;2024-01-16T02:45:22;5.03;;;1.80;;
49193;SDS011;35029;50.804;12.866;2024-01-16T02:47:47;4.40;;;1.67;;
49193;SDS011;35029;50.804;12.866;2024-01-16T02:50:13;4.53;;;1.80;;
49193;SDS011;35029;50.804;12.866;2024-01-16T02:52:39;3.63;;;1.77;;
49193;SDS011;35029;50.804;12.866;2024-01-16T02:55:05;3.43;;;1.53;;
49193;SDS011;35029;50.804;12.866;2024-01-16T02:57:31;4.25;;;1.35;;
49193;SDS011;35029;50.804;12.866;2024-01-16T02:59:56;4.70;;;1.52;;
49193;SDS011;35029;50.804;12.866;2024-01-16T03:02:22;2.77;;;1.40;;
49193;SDS011;35029;50.804;12.866;2024-01-16T03:04:49;4.07;;;1.27;;
49193;SDS011;35029;50.804;12.866;2024-01-16T03:07:15;4.57;;;1.57;;
49193;SDS011;35029;50.804;12.866;2024-01-16T03:09:41;4.37;;;1.60;;
49193;SDS011;35029;50.804;12.866;2024-01-16T03:12:06;3.47;;;1.43;;
49193;SDS011;35029;50.804;12.866;2024-01-16T03:14:32;3.75;;;1.38;;
49193;SDS011;35029;50.804;12.866;2024-01-16T03:17:02;6.43;;;1.93;;
49193;SDS011;35029;50.804;12.866;2024-01-16T03:19:28;3.92;;;1.30;;
49193;SDS011;35029;50.804;12.866;2024-01-16T03:21:54;3.88;;;2.40;;
49193;SDS011;35029;50.804;12.866;2024-01-16T03:24:19;8.07;;;2.25;;
49193;SDS011;35029;50.804;12.866;2024-01-16T03:26:45;7.78;;;2.17;;
49193;SDS011;35029;50.804;12.866;2024-01-16T03:29:11;3.90;;;1.53;;
49193;SDS011;35029;50.804;12.866;2024-01-16T03:31:37;5.65;;;1.90;;
49193;SDS011;35029;50.804;12.866;2024-01-16T03:34:02;5.97;;;1.87;;
49193;SDS011;35029;50.804;12.866;2024-01-16T03:36:28;4.80;;;1.55;;
49193;SDS011;35029;50.804;12.866;2024-01-16T03:38:54;2.67;;;1.83;;
49193;SDS011;35029;50.804;12.866;2024-01-16T03:41:19;4.23;;;1.80;;
49193;SDS011;35029;50.804;12.866;2024-01-16T03:43:44;4.87;;;1.53;;
49193;SDS011;35029;50.804;12.866;2024-01-16T03:46:10;4.32;;;1.92;;
49193;SDS011;35029;50.804;12.866;2024-01-16T03:48:36;4.70;;;1.90;;
49193;SDS011;35029;50.804;12.866;2024-01-16T03:51:02;14.07;;;2.20;;
49193;SDS011;35029;50.804;12.866;2024-01-16T03:53:28;2.83;;;1.70;;
49193;SDS011;35029;50.804;12.866;2024-01-16T03:55:53;3.47;;;1.50;;
49193;SDS011;35029;50.804;12.866;2024-01-16T03:58:19;2.92;;;1.65;;
49193;SDS011;35029;50.804;12.866;2024-01-16T04:00:44;8.35;;;2.22;;
49193;SDS011;35029;50.804;12.866;2024-01-16T04:03:10;5.43;;;1.53;;
49193;SDS011;35029;50.804;12.866;2024-01-16T04:05:36;9.07;;;2.37;;
49193;SDS011;35029;50.804;12.866;2024-01-16T04:08:02;2.60;;;1.50;;
49193;SDS011;35029;50.804;12.866;2024-01-16T04:10:28;2.97;;;1.80;;
49193;SDS011;35029;50.804;12.866;2024-01-16T04:12:53;3.93;;;1.60;;
49193;SDS011;35029;50.804;12.866;2024-01-16T04:15:19;2.95;;;1.83;;
49193;SDS011;35029;50.804;12.866;2024-01-16T04:17:44;3.85;;;1.63;;
49193;SDS011;35029;50.804;12.866;2024-01-16T04:20:10;2.72;;;1.88;;
49193;SDS011;35029;50.804;12.866;2024-01-16T04:22:36;4.47;;;1.80;;
49193;SDS011;35029;50.804;12.866;2024-01-16T04:25:03;6.65;;;1.33;;
49193;SDS011;35029;50.804;12.866;2024-01-16T04:27:30;7.40;;;1.97;;
49193;SDS011;35029;50.804;12.866;2024-01-16T04:29:58;5.47;;;1.83;;
49193;SDS011;35029;50.804;12.866;2024-01-16T04:32:24;4.78;;;1.90;;
49193;SDS011;35029;50.804;12.866;2024-01-16T04:34:50;2.83;;;1.40;;
49193;SDS011;35029;50.804;12.866;2024-01-16T04:37:15;4.67;;;1.67;;
49193;SDS011;35029;50.804;12.866;2024-01-16T04:39:41;3.03;;;1.38;;
49193;SDS011;35029;50.804;12.866;2024-01-16T04:42:06;4.23;;;1.67;;
49193;SDS011;35029;50.804;12.866;2024-01-16T04:44:32;5.33;;;2.00;;
49193;SDS011;35029;50.804;12.866;2024-01-16T04:46:57;3.97;;;1.40;;
49193;SDS011;35029;50.804;12.866;2024-01-16T04:49:23;11.13;;;2.10;;
49193;SDS011;35029;50.804;12.866;2024-01-16T04:51:49;2.47;;;1.83;;
49193;SDS011;35029;50.804;12.866;2024-01-16T04:54:14;6.03;;;2.10;;
49193;SDS011;35029;50.804;12.866;2024-01-16T04:56:40;6.88;;;1.60;;
49193;SDS011;35029;50.804;12.866;2024-01-16T04:59:05;3.17;;;1.55;;
49193;SDS011;35029;50.804;12.866;2024-01-16T05:01:31;5.77;;;1.70;;
49193;SDS011;35029;50.804;12.866;2024-01-16T05:03:56;5.30;;;1.88;;
49193;SDS011;35029;50.804;12.866;2024-01-16T05:06:22;5.47;;;1.60;;
49193;SDS011;35029;50.804;12.866;2024-01-16T05:08:48;6.90;;;1.60;;
49193;SDS011;35029;50.804;12.866;2024-01-16T05:11:14;4.27;;;1.80;;
49193;SDS011;35029;50.804;12.866;2024-01-16T05:13:39;7.07;;;1.27;;
49193;SDS011;35029;50.804;12.866;2024-01-16T05:16:05;3.95;;;1.75;;
49193;SDS011;35029;50.804;12.866;2024-01-16T05:18:31;7.63;;;2.03;;
49193;SDS011;35029;50.804;12.866;2024-01-16T05:20:58;3.23;;;1.67;;
49193;SDS011;35029;50.804;12.866;2024-01-16T05:23:24;4.60;;;2.23;;
49193;SDS011;35029;50.804;12.866;2024-01-16T05:25:50;6.78;;;2.33;;
49193;SDS011;35029;50.804;12.866;2024-01-16T05:28:16;6.15;;;2.22;;
49193;SDS011;35029;50.804;12.866;2024-01-16T05:30:43;4.23;;;2.47;;
49193;SDS011;35029;50.804;12.866;2024-01-16T05:33:09;6.77;;;2.70;;
49193;SDS011;35029;50.804;12.866;2024-01-16T05:35:34;2.87;;;1.80;;
49193;SDS011;35029;50.804;12.866;2024-01-16T05:38:00;5.75;;;2.20;;
49193;SDS011;35029;50.804;12.866;2024-01-16T05:40:25;7.70;;;2.33;;
49193;SDS011;35029;50.804;12.866;2024-01-16T05:42:52;7.83;;;2.90;;
49193;SDS011;35029;50.804;12.866;2024-01-16T05:45:18;5.28;;;2.42;;
49193;SDS011;35029;50.804;12.866;2024-01-16T05:47:43;4.67;;;2.57;;
49193;SDS011;35029;50.804;12.866;2024-01-16T05:50:09;8.30;;;2.53;;
49193;SDS011;35029;50.804;12.866;2024-01-16T05:52:35;10.70;;;2.83;;
49193;SDS011;35029;50.804;12.866;2024-01-16T05:55:01;9.43;;;3.33;;
49193;SDS011;35029;50.804;12.866;2024-01-16T05:57:28;5.68;;;2.60;;
49193;SDS011;35029;50.804;12.866;2024-01-16T05:59:58;5.80;;;2.90;;
49193;SDS011;35029;50.804;12.866;2024-01-16T06:02:24;10.90;;;2.90;;
49193;SDS011;35029;50.804;12.866;2024-01-16T06:04:49;8.10;;;2.83;;
49193;SDS011;35029;50.804;12.866;2024-01-16T06:07:16;5.77;;;2.70;;
49193;SDS011;35029;50.804;12.866;2024-01-16T06:09:41;5.43;;;2.43;;
49193;SDS011;35029;50.804;12.866;2024-01-16T06:12:07;8.50;;;2.50;;
49193;SDS011;35029;50.804;12.866;2024-01-16T06:14:33;11.63;;;3.23;;
49193;SDS011;35029;50.804;12.866;2024-01-16T06:17:00;4.73;;;2.10;;
49193;SDS011;35029;50.804;12.866;2024-01-16T06:19:28;8.43;;;2.10;;
49193;SDS011;35029;50.804;12.866;2024-01-16T06:21:53;6.55;;;2.97;;
49193;SDS011;35029;50.804;12.866;2024-01-16T06:24:19;6.33;;;2.07;;
49193;SDS011;35029;50.804;12.866;2024-01-16T06:26:44;10.67;;;2.63;;
49193;SDS011;35029;50.804;12.866;2024-01-16T06:29:10;5.63;;;2.40;;
49193;SDS011;35029;50.804;12.866;2024-01-16T06:31:35;4.73;;;1.90;;
49193;SDS011;35029;50.804;12.866;2024-01-16T06:34:03;6.80;;;2.17;;
49193;SDS011;35029;50.804;12.866;2024-01-16T06:36:29;5.80;;;2.40;;
49193;SDS011;35029;50.804;12.866;2024-01-16T06:38:54;7.87;;;2.97;;
49193;SDS011;35029;50.804;12.866;2024-01-16T06:41:20;8.10;;;2.17;;
49193;SDS011;35029;50.804;12.866;2024-01-16T06:43:46;7.70;;;2.13;;
49193;SDS011;35029;50.804;12.866;2024-01-16T06:46:11;3.13;;;2.17;;
49193;SDS011;35029;50.804;12.866;2024-01-16T06:48:37;7.27;;;2.30;;
49193;SDS011;35029;50.804;12.866;2024-01-16T06:51:03;7.80;;;2.27;;
49193;SDS011;35029;50.804;12.866;2024-01-16T06:53:29;6.67;;;2.40;;
49193;SDS011;35029;50.804;12.866;2024-01-16T06:55:55;8.07;;;2.13;;
49193;SDS011;35029;50.804;12.866;2024-01-16T06:58:21;6.57;;;2.10;;
49193;SDS011;35029;50.804;12.866;2024-01-16T07:00:47;5.28;;;2.20;;
49193;SDS011;35029;50.804;12.866;2024-01-16T07:03:13;8.17;;;2.23;;
49193;SDS011;35029;50.804;12.866;2024-01-16T07:05:39;4.33;;;2.47;;
49193;SDS011;35029;50.804;12.866;2024-01-16T07:08:09;4.83;;;2.20;;
49193;SDS011;35029;50.804;12.866;2024-01-16T07:10:35;8.40;;;3.07;;
49193;SDS011;35029;50.804;12.866;2024-01-16T07:13:01;5.53;;;2.30;;
49193;SDS011;35029;50.804;12.866;2024-01-16T07:15:27;8.63;;;2.50;;
49193;SDS011;35029;50.804;12.866;2024-01-16T07:17:53;4.00;;;2.40;;
49193;SDS011;35029;50.804;12.866;2024-01-16T07:20:20;8.80;;;2.70;;
49193;SDS011;35029;50.804;12.866;2024-01-16T07:22:46;5.37;;;2.50;;
49193;SDS011;35029;50.804;12.866;2024-01-16T07:25:12;7.50;;;2.27;;
49193;SDS011;35029;50.804;12.866;2024-01-16T07:27:37;6.50;;;2.60;;
49193;SDS011;35029;50.804;12.866;2024-01-16T07:30:06;6.95;;;2.55;;
49193;SDS011;35029;50.804;12.866;2024-01-16T07:32:32;5.63;;;2.10;;
49193;SDS011;35029;50.804;12.866;2024-01-16T07:34:58;5.57;;;2.50;;
49193;SDS011;35029;50.804;12.866;2024-01-16T07:37:24;5.00;;;2.33;;
49193;SDS011;35029;50.804;12.866;2024-01-16T07:39:50;8.13;;;2.60;;
49193;SDS011;35029;50.804;12.866;2024-01-16T07:42:15;5.43;;;2.50;;
49193;SDS011;35029;50.804;12.866;2024-01-16T07:44:42;9.30;;;2.60;;
49193;SDS011;35029;50.804;12.866;2024-01-16T07:47:07;5.97;;;2.50;;
49193;SDS011;35029;50.804;12.866;2024-01-16T07:49:33;5.93;;;2.50;;
49193;SDS011;35029;50.804;12.866;2024-01-16T07:51:59;6.73;;;2.57;;
49193;SDS011;35029;50.804;12.866;2024-01-16T07:54:25;11.00;;;2.80;;
49193;SDS011;35029;50.804;12.866;2024-01-16T07:56:51;7.93;;;2.20;;
49193;SDS011;35029;50.804;12.866;2024-01-16T07:59:18;6.37;;;2.57;;
49193;SDS011;35029;50.804;12.866;2024-01-16T08:04:32;5.03;;;2.80;;
49193;SDS011;35029;50.804;12.866;2024-01-16T08:06:59;9.00;;;2.80;;
49193;SDS011;35029;50.804;12.866;2024-01-16T08:09:24;9.63;;;2.80;;
49193;SDS011;35029;50.804;12.866;2024-01-16T08:11:50;5.53;;;2.60;;
49193;SDS011;35029;50.804;12.866;2024-01-16T08:14:16;9.57;;;2.50;;
49193;SDS011;35029;50.804;12.866;2024-01-16T08:16:41;8.93;;;2.67;;
49193;SDS011;35029;50.804;12.866;2024-01-16T08:19:07;8.60;;;3.23;;
49193;SDS011;35029;50.804;12.866;2024-01-16T08:21:33;8.73;;;2.97;;
49193;SDS011;35029;50.804;12.866;2024-01-16T08:23:58;8.70;;;2.30;;
49193;SDS011;35029;50.804;12.866;2024-01-16T08:26:24;4.77;;;2.30;;
49193;SDS011;35029;50.804;12.866;2024-01-16T08:28:50;9.57;;;2.93;;
49193;SDS011;35029;50.804;12.866;2024-01-16T08:31:16;8.13;;;2.80;;
49193;SDS011;35029;50.804;12.866;2024-01-16T08:33:43;7.70;;;2.63;;
49193;SDS011;35029;50.804;12.866;2024-01-16T08:36:09;4.00;;;2.53;;
49193;SDS011;35029;50.804;12.866;2024-01-16T08:38:35;4.47;;;2.42;;
49193;SDS011;35029;50.804;12.866;2024-01-16T08:41:00;5.93;;;2.45;;
49193;SDS011;35029;50.804;12.866;2024-01-16T08:43:26;3.60;;;2.57;;
49193;SDS011;35029;50.804;12.866;2024-01-16T08:45:51;6.90;;;3.20;;
49193;SDS011;35029;50.804;12.866;2024-01-16T08:48:17;7.18;;;2.33;;
49193;SDS011;35029;50.804;12.866;2024-01-16T08:50:42;6.90;;;2.70;;
49193;SDS011;35029;50.804;12.866;2024-01-16T08:53:08;4.75;;;3.15;;
49193;SDS011;35029;50.804;12.866;2024-01-16T08:55:33;3.43;;;1.90;;
49193;SDS011;35029;50.804;12.866;2024-01-16T08:57:59;8.27;;;2.45;;
49193;SDS011;35029;50.804;12.866;2024-01-16T09:00:24;5.78;;;2.90;;
49193;SDS011;35029;50.804;12.866;2024-01-16T09:02:50;5.82;;;2.30;;
49193;SDS011;35029;50.804;12.866;2024-01-16T09:05:17;6.20;;;2.63;;
49193;SDS011;35029;50.804;12.866;2024-01-16T09:07:43;5.97;;;2.70;;
49193;SDS011;35029;50.804;12.866;2024-01-16T09:10:10;6.03;;;2.57;;
49193;SDS011;35029;50.804;12.866;2024-01-16T09:12:36;4.00;;;2.50;;
49193;SDS011;35029;50.804;12.866;2024-01-16T09:15:01;4.28;;;2.20;;
49193;SDS011;35029;50.804;12.866;2024-01-16T09:17:27;2.60;;;1.90;;
49193;SDS011;35029;50.804;12.866;2024-01-16T09:19:52;5.60;;;2.53;;
49193;SDS011;35029;50.804;12.866;2024-01-16T09:22:18;5.32;;;2.60;;
49193;SDS011;35029;50.804;12.866;2024-01-16T09:24:44;7.45;;;2.70;;
49193;SDS011;35029;50.804;12.866;2024-01-16T09:27:09;7.20;;;2.40;;
49193;SDS011;35029;50.804;12.866;2024-01-16T09:29:35;4.15;;;2.45;;
49193;SDS011;35029;50.804;12.866;2024-01-16T09:32:02;7.78;;;2.45;;
49193;SDS011;35029;50.804;12.866;2024-01-16T09:34:27;3.97;;;2.20;;
49193;SDS011;35029;50.804;12.866;2024-01-16T09:36:53;5.32;;;2.15;;
49193;SDS011;35029;50.804;12.866;2024-01-16T09:39:19;5.95;;;2.17;;
49193;SDS011;35029;50.804;12.866;2024-01-16T09:41:45;7.35;;;3.03;;
49193;SDS011;35029;50.804;12.866;2024-01-16T09:44:10;5.60;;;2.47;;
49193;SDS011;35029;50.804;12.866;2024-01-16T09:46:39;6.03;;;2.60;;
49193;SDS011;35029;50.804;12.866;2024-01-16T09:49:12;9.45;;;2.47;;
49193;SDS011;35029;50.804;12.866;2024-01-16T09:51:39;8.27;;;2.40;;
49193;SDS011;35029;50.804;12.866;2024-01-16T09:54:05;5.28;;;2.42;;
49193;SDS011;35029;50.804;12.866;2024-01-16T09:56:34;7.07;;;2.27;;
49193;SDS011;35029;50.804;12.866;2024-01-16T09:59:05;4.20;;;2.38;;
49193;SDS011;35029;50.804;12.866;2024-01-16T10:01:33;6.57;;;2.88;;
49193;SDS011;35029;50.804;12.866;2024-01-16T10:04:00;6.90;;;2.53;;
49193;SDS011;35029;50.804;12.866;2024-01-16T10:06:27;11.70;;;2.83;;
49193;SDS011;35029;50.804;12.866;2024-01-16T10:08:53;4.95;;;2.33;;
49193;SDS011;35029;50.804;12.866;2024-01-16T10:11:18;5.20;;;2.60;;
49193;SDS011;35029;50.804;12.866;2024-01-16T10:13:44;6.18;;;2.78;;
49193;SDS011;35029;50.804;12.866;2024-01-16T10:16:10;5.22;;;2.22;;
49193;SDS011;35029;50.804;12.866;2024-01-16T10:18:35;6.82;;;2.60;;
49193;SDS011;35029;50.804;12.866;2024-01-16T10:21:03;5.17;;;2.73;;
49193;SDS011;35029;50.804;12.866;2024-01-16T10:23:30;9.77;;;3.10;;
49193;SDS011;35029;50.804;12.866;2024-01-16T10:28:36;6.80;;;2.67;;
49193;SDS011;35029;50.804;12.866;2024-01-16T10:31:03;8.02;;;2.67;;
49193;SDS011;35029;50.804;12.866;2024-01-16T10:33:30;7.22;;;2.80;;
49193;SDS011;35029;50.804;12.866;2024-01-16T10:36:15;9.95;;;3.33;;
49193;SDS011;35029;50.804;12.866;2024-01-16T10:38:42;4.50;;;2.63;;
49193;SDS011;35029;50.804;12.866;2024-01-16T10:41:15;4.97;;;2.92;;
49193;SDS011;35029;50.804;12.866;2024-01-16T10:44:02;5.47;;;2.38;;
49193;SDS011;35029;50.804;12.866;2024-01-16T10:46:32;8.98;;;3.38;;
49193;SDS011;35029;50.804;12.866;2024-01-16T10:49:02;6.25;;;3.17;;
49193;SDS011;35029;50.804;12.866;2024-01-16T10:51:29;4.50;;;2.50;;
49193;SDS011;35029;50.804;12.866;2024-01-16T10:54:14;8.45;;;2.80;;
49193;SDS011;35029;50.804;12.866;2024-01-16T10:56:42;4.32;;;2.45;;
49193;SDS011;35029;50.804;12.866;2024-01-16T11:01:45;8.77;;;3.03;;
49193;SDS011;35029;50.804;12.866;2024-01-16T11:04:17;8.43;;;2.90;;
49193;SDS011;35029;50.804;12.866;2024-01-16T11:06:45;7.05;;;2.92;;
49193;SDS011;35029;50.804;12.866;2024-01-16T11:09:12;8.85;;;2.63;;
49193;SDS011;35029;50.804;12.866;2024-01-16T11:11:45;8.20;;;3.30;;
49193;SDS011;35029;50.804;12.866;2024-01-16T11:14:11;6.60;;;3.00;;
49193;SDS011;35029;50.804;12.866;2024-01-16T11:16:38;9.18;;;3.42;;
49193;SDS011;35029;50.804;12.866;2024-01-16T11:19:05;3.58;;;2.60;;
49193;SDS011;35029;50.804;12.866;2024-01-16T11:21:33;7.22;;;2.95;;
49193;SDS011;35029;50.804;12.866;2024-01-16T11:24:00;4.57;;;2.47;;
49193;SDS011;35029;50.804;12.866;2024-01-16T11:26:33;7.28;;;2.95;;
49193;SDS011;35029;50.804;12.866;2024-01-16T11:29:49;6.50;;;2.53;;
49193;SDS011;35029;50.804;12.866;2024-01-16T11:31:54;7.10;;;2.50;;
49193;SDS011;35029;50.804;12.866;2024-01-16T11:37:07;5.00;;;2.80;;
49193;SDS011;35029;50.804;12.866;2024-01-16T11:39:33;8.25;;;2.78;;
49193;SDS011;35029;50.804;12.866;2024-01-16T11:41:59;7.70;;;2.97;;
49193;SDS011;35029;50.804;12.866;2024-01-16T11:47:08;10.40;;;2.53;;
49193;SDS011;35029;50.804;12.866;2024-01-16T11:49:35;9.98;;;2.60;;
49193;SDS011;35029;50.804;12.866;2024-01-16T11:52:01;6.97;;;3.13;;
49193;SDS011;35029;50.804;12.866;2024-01-16T11:54:27;8.45;;;2.80;;
49193;SDS011;35029;50.804;12.866;2024-01-16T12:00:14;8.07;;;2.38;;
49193;SDS011;35029;50.804;12.866;2024-01-16T12:05:41;7.80;;;2.40;;
49193;SDS011;35029;50.804;12.866;2024-01-16T12:08:09;5.28;;;2.60;;
49193;SDS011;35029;50.804;12.866;2024-01-16T12:10:37;5.47;;;2.10;;
49193;SDS011;35029;50.804;12.866;2024-01-16T12:13:14;7.50;;;2.38;;
49193;SDS011;35029;50.804;12.866;2024-01-16T12:15:40;4.65;;;2.80;;
49193;SDS011;35029;50.804;12.866;2024-01-16T12:18:06;8.25;;;2.60;;
49193;SDS011;35029;50.804;12.866;2024-01-16T12:20:33;3.42;;;2.10;;
49193;SDS011;35029;50.804;12.866;2024-01-16T12:23:02;2.85;;;1.98;;
49193;SDS011;35029;50.804;12.866;2024-01-16T12:25:35;7.93;;;2.63;;
49193;SDS011;35029;50.804;12.866;2024-01-16T12:28:03;9.02;;;3.00;;
49193;SDS011;35029;50.804;12.866;2024-01-16T12:30:31;4.70;;;2.30;;
49193;SDS011;35029;50.804;12.866;2024-01-16T12:33:16;7.22;;;2.95;;
49193;SDS011;35029;50.804;12.866;2024-01-16T12:35:46;7.53;;;2.38;;
49193;SDS011;35029;50.804;12.866;2024-01-16T12:38:12;7.15;;;2.83;;
49193;SDS011;35029;50.804;12.866;2024-01-16T12:40:39;8.68;;;2.80;;
49193;SDS011;35029;50.804;12.866;2024-01-16T12:43:11;5.95;;;2.47;;
49193;SDS011;35029;50.804;12.866;2024-01-16T12:45:37;7.25;;;2.28;;
49193;SDS011;35029;50.804;12.866;2024-01-16T12:48:03;6.55;;;2.10;;
49193;SDS011;35029;50.804;12.866;2024-01-16T12:50:29;5.93;;;2.20;;
49193;SDS011;35029;50.804;12.866;2024-01-16T12:53:06;7.57;;;2.70;;
49193;SDS011;35029;50.804;12.866;2024-01-16T12:55:34;5.57;;;2.88;;
49193;SDS011;35029;50.804;12.866;2024-01-16T12:58:20;3.50;;;2.22;;
49193;SDS011;35029;50.804;12.866;2024-01-16T13:00:50;9.50;;;2.70;;
49193;SDS011;35029;50.804;12.866;2024-01-16T13:03:17;6.38;;;2.30;;
49193;SDS011;35029;50.804;12.866;2024-01-16T13:05:44;6.10;;;2.90;;
49193;SDS011;35029;50.804;12.866;2024-01-16T13:08:16;7.47;;;2.20;;
49193;SDS011;35029;50.804;12.866;2024-01-16T13:11:01;11.75;;;3.10;;
49193;SDS011;35029;50.804;12.866;2024-01-16T13:13:28;5.00;;;2.83;;
49193;SDS011;35029;50.804;12.866;2024-01-16T13:15:54;5.65;;;2.60;;
49193;SDS011;35029;50.804;12.866;2024-01-16T13:18:20;7.43;;;2.47;;
49193;SDS011;35029;50.804;12.866;2024-01-16T13:20:50;4.80;;;2.75;;
49193;SDS011;35029;50.804;12.866;2024-01-16T13:23:17;6.68;;;3.08;;
49193;SDS011;35029;50.804;12.866;2024-01-16T13:25:44;4.75;;;2.42;;
49193;SDS011;35029;50.804;12.866;2024-01-16T13:28:11;10.70;;;3.78;;
49193;SDS011;35029;50.804;12.866;2024-01-16T13:30:37;8.27;;;3.15;;
49193;SDS011;35029;50.804;12.866;2024-01-16T13:33:03;6.90;;;2.75;;
49193;SDS011;35029;50.804;12.866;2024-01-16T13:35:30;12.77;;;3.58;;
49193;SDS011;35029;50.804;12.866;2024-01-16T13:37:56;9.95;;;3.47;;
49193;SDS011;35029;50.804;12.866;2024-01-16T13:40:21;9.10;;;3.70;;
49193;SDS011;35029;50.804;12.866;2024-01-16T13:42:48;7.75;;;3.20;;
49193;SDS011;35029;50.804;12.866;2024-01-16T13:45:13;6.93;;;3.20;;
49193;SDS011;35029;50.804;12.866;2024-01-16T13:47:39;5.63;;;3.08;;
49193;SDS011;35029;50.804;12.866;2024-01-16T13:50:06;6.72;;;3.20;;
49193;SDS011;35029;50.804;12.866;2024-01-16T13:52:32;7.60;;;3.78;;
49193;SDS011;35029;50.804;12.866;2024-01-16T13:54:59;8.52;;;3.03;;
49193;SDS011;35029;50.804;12.866;2024-01-16T13:57:28;7.53;;;3.60;;
49193;SDS011;35029;50.804;12.866;2024-01-16T13:59:54;7.65;;;3.50;;
49193;SDS011;35029;50.804;12.866;2024-01-16T14:02:19;9.30;;;3.25;;
49193;SDS011;35029;50.804;12.866;2024-01-16T14:04:46;6.82;;;3.50;;
49193;SDS011;35029;50.804;12.866;2024-01-16T14:07:11;6.18;;;3.20;;
49193;SDS011;35029;50.804;12.866;2024-01-16T14:09:37;12.82;;;4.13;;
49193;SDS011;35029;50.804;12.866;2024-01-16T14:12:03;6.05;;;3.40;;
49193;SDS011;35029;50.804;12.866;2024-01-16T14:14:29;9.15;;;3.78;;
49193;SDS011;35029;50.804;12.866;2024-01-16T14:16:55;9.10;;;3.47;;
49193;SDS011;35029;50.804;12.866;2024-01-16T14:19:22;10.45;;;4.00;;
49193;SDS011;35029;50.804;12.866;2024-01-16T14:21:49;5.75;;;3.03;;
49193;SDS011;35029;50.804;12.866;2024-01-16T14:24:15;7.00;;;3.85;;
49193;SDS011;35029;50.804;12.866;2024-01-16T14:26:43;6.88;;;3.53;;
49193;SDS011;35029;50.804;12.866;2024-01-16T14:29:09;6.25;;;3.30;;
49193;SDS011;35029;50.804;12.866;2024-01-16T14:31:35;8.65;;;3.92;;
49193;SDS011;35029;50.804;12.866;2024-01-16T14:34:01;6.78;;;3.35;;
49193;SDS011;35029;50.804;12.866;2024-01-16T14:36:26;7.28;;;3.63;;
49193;SDS011;35029;50.804;12.866;2024-01-16T14:38:52;8.18;;;4.10;;
49193;SDS011;35029;50.804;12.866;2024-01-16T14:41:17;7.05;;;3.90;;
49193;SDS011;35029;50.804;12.866;2024-01-16T14:43:43;5.97;;;3.40;;
49193;SDS011;35029;50.804;12.866;2024-01-16T14:46:09;6.38;;;3.92;;
49193;SDS011;35029;50.804;12.866;2024-01-16T14:48:45;10.50;;;4.13;;
49193;SDS011;35029;50.804;12.866;2024-01-16T14:51:11;8.57;;;4.60;;
49193;SDS011;35029;50.804;12.866;2024-01-16T14:53:37;9.52;;;4.80;;